createdAt,value
2023-05-08T00:00:20.014Z,28.81
2023-05-08T00:01:20.087Z,28.80
2023-05-08T00:02:20.119Z,28.80
2023-05-08T00:03:20.226Z,28.79
2023-05-08T00:04:20.194Z,28.79
2023-05-08T00:05:20.208Z,28.79
2023-05-08T00:06:20.282Z,28.78
2023-05-08T00:07:20.300Z,28.78
2023-05-08T00:08:20.351Z,28.77
2023-05-08T00:09:20.372Z,28.76
2023-05-08T00:10:20.409Z,28.77
2023-05-08T00:11:20.472Z,28.76
2023-05-08T00:12:20.491Z,28.76
2023-05-08T00:13:20.700Z,28.76
2023-05-08T00:14:20.590Z,28.76
2023-05-08T00:15:20.619Z,28.76
2023-05-08T00:16:20.733Z,28.76
2023-05-08T00:17:20.703Z,28.76
2023-05-08T00:18:20.776Z,28.75
2023-05-08T00:19:20.778Z,28.75
2023-05-08T00:20:20.833Z,28.75
2023-05-08T00:21:20.851Z,28.74
2023-05-08T00:22:20.887Z,28.74
2023-05-08T00:23:20.966Z,28.74
2023-05-08T00:24:21.006Z,28.74
2023-05-08T00:25:21.018Z,28.74
2023-05-08T00:26:21.066Z,28.74
2023-05-08T00:27:21.156Z,28.74
2023-05-08T00:28:21.150Z,28.74
2023-05-08T00:29:21.198Z,28.73
2023-05-08T00:30:21.251Z,28.72
2023-05-08T00:31:21.306Z,28.71
2023-05-08T00:32:21.574Z,28.71
2023-05-08T00:33:21.396Z,28.70
2023-05-08T00:34:21.436Z,28.69
2023-05-08T00:35:21.504Z,28.70
2023-05-08T00:36:21.671Z,28.70
2023-05-08T00:37:21.586Z,28.70
2023-05-08T00:38:21.682Z,28.69
2023-05-08T00:39:21.717Z,28.68
2023-05-08T00:40:21.741Z,28.68
2023-05-08T00:41:21.800Z,28.69
2023-05-08T00:42:21.838Z,28.68
2023-05-08T00:43:21.994Z,28.68
2023-05-08T00:44:21.910Z,28.67
2023-05-08T00:45:21.989Z,28.67
2023-05-08T00:46:22.080Z,28.66
2023-05-08T00:47:22.108Z,28.66
2023-05-08T00:48:22.154Z,28.66
2023-05-08T00:49:22.216Z,28.65
2023-05-08T00:50:22.216Z,28.66
2023-05-08T00:51:22.294Z,28.65
2023-05-08T00:52:22.341Z,28.65
2023-05-08T00:53:22.447Z,28.64
2023-05-08T00:54:22.453Z,28.64
2023-05-08T00:55:22.522Z,28.64
2023-05-08T00:56:22.577Z,28.63
2023-05-08T00:57:22.633Z,28.63
2023-05-08T00:58:22.700Z,28.62
2023-05-08T00:59:22.744Z,28.63
2023-05-08T01:00:22.796Z,28.62
2023-05-08T01:01:22.913Z,28.63
2023-05-08T01:02:23.021Z,28.62
2023-05-08T01:03:23.059Z,28.61
2023-05-08T01:04:23.059Z,28.61
2023-05-08T01:05:23.093Z,28.62
2023-05-08T01:06:23.145Z,28.61
2023-05-08T01:07:23.208Z,28.61
2023-05-08T01:08:23.269Z,28.60
2023-05-08T01:09:23.320Z,28.60
2023-05-08T01:10:23.413Z,28.59
2023-05-08T01:11:23.457Z,28.59
2023-05-08T01:12:23.493Z,28.60
2023-05-08T01:13:23.740Z,28.60
2023-05-08T01:14:23.605Z,28.58
2023-05-08T01:15:23.694Z,28.59
2023-05-08T01:16:23.819Z,28.59
2023-05-08T01:17:23.903Z,28.60
2023-05-08T01:18:23.880Z,28.58
2023-05-08T01:19:23.932Z,28.58
2023-05-08T01:20:23.960Z,28.57
2023-05-08T01:21:24.046Z,28.57
2023-05-08T01:22:24.086Z,28.56
2023-05-08T01:23:24.193Z,28.56
2023-05-08T01:24:24.187Z,28.55
2023-05-08T01:25:24.301Z,28.56
2023-05-08T01:26:24.326Z,28.56
2023-05-08T01:27:24.445Z,28.55
2023-05-08T01:28:24.462Z,28.54
2023-05-08T01:29:24.527Z,28.53
2023-05-08T01:30:24.554Z,28.53
2023-05-08T01:31:24.611Z,28.53
2023-05-08T01:32:24.677Z,28.52
2023-05-08T01:33:24.861Z,28.53
2023-05-08T01:34:24.776Z,28.52
2023-05-08T01:35:24.807Z,28.51
2023-05-08T01:36:24.922Z,28.51
2023-05-08T01:37:25.009Z,28.52
2023-05-08T01:38:25.040Z,28.50
2023-05-08T01:39:25.084Z,28.51
2023-05-08T01:40:25.132Z,28.51
2023-05-08T01:41:25.193Z,28.51
2023-05-08T01:42:25.237Z,28.50
2023-05-08T01:43:25.284Z,28.50
2023-05-08T01:44:25.317Z,28.49
2023-05-08T01:45:25.410Z,28.50
2023-05-08T01:46:25.472Z,28.49
2023-05-08T01:47:25.520Z,28.49
2023-05-08T01:48:25.552Z,28.48
2023-05-08T01:49:25.588Z,28.48
2023-05-08T01:50:25.641Z,28.47
2023-05-08T01:51:25.710Z,28.47
2023-05-08T01:52:25.717Z,28.47
2023-05-08T01:53:25.782Z,28.47
2023-05-08T01:54:25.842Z,28.47
2023-05-08T01:55:25.918Z,28.46
2023-05-08T01:56:25.947Z,28.47
2023-05-08T01:57:26.001Z,28.47
2023-05-08T01:58:26.038Z,28.46
2023-05-08T01:59:26.067Z,28.45
2023-05-08T02:00:26.107Z,28.46
2023-05-08T02:01:26.275Z,28.45
2023-05-08T02:02:26.206Z,28.46
2023-05-08T02:03:26.341Z,28.45
2023-05-08T02:04:26.272Z,28.45
2023-05-08T02:05:26.241Z,28.46
2023-05-08T02:06:26.300Z,28.45
2023-05-08T02:07:26.325Z,28.43
2023-05-08T02:08:26.379Z,28.43
2023-05-08T02:09:26.421Z,28.43
2023-05-08T02:10:26.457Z,28.43
2023-05-08T02:11:26.569Z,28.42
2023-05-08T02:12:26.532Z,28.42
2023-05-08T02:13:26.623Z,28.42
2023-05-08T02:14:26.548Z,28.42
2023-05-08T02:15:26.557Z,28.42
2023-05-08T02:16:26.577Z,28.42
2023-05-08T02:17:26.594Z,28.42
2023-05-08T02:18:26.609Z,28.42
2023-05-08T02:19:26.580Z,28.42
2023-05-08T02:20:26.658Z,28.42
2023-05-08T02:21:26.760Z,28.42
2023-05-08T02:22:26.695Z,28.42
2023-05-08T02:23:26.735Z,28.42
2023-05-08T02:24:26.713Z,28.40
2023-05-08T02:25:26.769Z,28.40
2023-05-08T02:26:26.823Z,28.39
2023-05-08T02:27:26.800Z,28.38
2023-05-08T02:28:26.799Z,28.39
2023-05-08T02:29:26.810Z,28.41
2023-05-08T02:30:26.863Z,28.41
2023-05-08T02:31:26.934Z,28.39
2023-05-08T02:32:26.905Z,28.39
2023-05-08T02:33:26.809Z,28.37
2023-05-08T02:34:26.842Z,28.38
2023-05-08T02:35:26.929Z,28.37
2023-05-08T02:36:26.910Z,28.37
2023-05-08T02:37:26.916Z,28.37
2023-05-08T02:38:26.926Z,28.37
2023-05-08T02:39:26.902Z,28.36
2023-05-08T02:40:26.907Z,28.36
2023-05-08T02:41:26.980Z,28.36
2023-05-08T02:42:27.076Z,28.34
2023-05-08T02:43:27.051Z,28.35
2023-05-08T02:44:27.063Z,28.35
2023-05-08T02:45:27.022Z,28.35
2023-05-08T02:46:27.098Z,28.35
2023-05-08T02:47:27.066Z,28.35
2023-05-08T02:48:27.146Z,28.34
2023-05-08T02:49:27.252Z,28.34
2023-05-08T02:50:27.382Z,28.34
2023-05-08T02:51:27.402Z,28.33
2023-05-08T02:52:27.424Z,28.33
2023-05-08T02:53:27.494Z,28.33
2023-05-08T02:54:27.541Z,28.33
2023-05-08T02:55:27.410Z,28.32
2023-05-08T02:56:27.440Z,28.33
2023-05-08T02:57:27.475Z,28.33
2023-05-08T02:58:27.465Z,28.33
2023-05-08T02:59:27.481Z,28.32
2023-05-08T03:00:27.442Z,28.31
2023-05-08T03:01:27.525Z,28.30
2023-05-08T03:02:27.618Z,28.30
2023-05-08T03:03:27.758Z,28.30
2023-05-08T03:04:27.743Z,28.30
2023-05-08T03:05:27.824Z,28.30
2023-05-08T03:06:27.883Z,28.29
2023-05-08T03:07:27.997Z,28.28
2023-05-08T03:08:27.978Z,28.28
2023-05-08T03:09:27.968Z,28.28
2023-05-08T03:10:28.011Z,28.29
2023-05-08T03:11:28.009Z,28.29
2023-05-08T03:12:28.011Z,28.29
2023-05-08T03:13:28.195Z,28.28
2023-05-08T03:14:28.183Z,28.28
2023-05-08T03:15:28.303Z,28.27
2023-05-08T03:16:28.411Z,28.26
2023-05-08T03:17:28.567Z,28.26
2023-05-08T03:18:28.653Z,28.25
2023-05-08T03:19:28.675Z,28.24
2023-05-08T03:20:28.700Z,28.24
2023-05-08T03:21:28.667Z,28.24
2023-05-08T03:22:28.693Z,28.24
2023-05-08T03:23:28.700Z,28.24
2023-05-08T03:24:28.657Z,28.24
2023-05-08T03:25:28.788Z,28.23
2023-05-08T03:26:28.825Z,28.25
2023-05-08T03:27:28.800Z,28.25
2023-05-08T03:28:28.787Z,28.24
2023-05-08T03:29:28.814Z,28.23
2023-05-08T03:30:28.800Z,28.22
2023-05-08T03:31:28.957Z,28.24
2023-05-08T03:32:28.991Z,28.23
2023-05-08T03:33:28.923Z,28.22
2023-05-08T03:34:28.953Z,28.23
2023-05-08T03:35:28.992Z,28.23
2023-05-08T03:36:28.970Z,28.23
2023-05-08T03:37:29.111Z,28.21
2023-05-08T03:38:29.175Z,28.21
2023-05-08T03:39:29.192Z,28.21
2023-05-08T03:40:29.238Z,28.20
2023-05-08T03:41:29.237Z,28.21
2023-05-08T03:42:29.242Z,28.20
2023-05-08T03:43:29.234Z,28.19
2023-05-08T03:44:29.293Z,28.18
2023-05-08T03:45:29.296Z,28.17
2023-05-08T03:46:29.357Z,28.17
2023-05-08T03:47:29.329Z,28.16
2023-05-08T03:48:29.350Z,28.16
2023-05-08T03:49:29.388Z,28.14
2023-05-08T03:50:29.391Z,28.14
2023-05-08T03:51:29.366Z,28.14
2023-05-08T03:52:29.422Z,28.14
2023-05-08T03:53:29.430Z,28.15
2023-05-08T03:54:29.546Z,28.15
2023-05-08T03:55:29.487Z,28.14
2023-05-08T03:56:29.469Z,28.16
2023-05-08T03:57:29.514Z,28.16
2023-05-08T03:58:29.518Z,28.16
2023-05-08T03:59:29.560Z,28.15
2023-05-08T04:00:29.547Z,28.14
2023-05-08T04:01:29.577Z,28.14
2023-05-08T04:02:29.744Z,28.13
2023-05-08T04:03:29.660Z,28.13
2023-05-08T04:04:29.640Z,28.13
2023-05-08T04:05:29.709Z,28.11
2023-05-08T04:06:32.969Z,28.10
2023-05-08T04:07:30.772Z,28.07
2023-05-08T04:08:29.667Z,28.09
2023-05-08T04:09:29.680Z,28.06
2023-05-08T04:10:29.665Z,28.03
2023-05-08T04:11:29.660Z,28.01
2023-05-08T04:12:29.688Z,28.00
2023-05-08T04:13:29.761Z,27.98
2023-05-08T04:14:29.715Z,27.98
2023-05-08T04:15:29.688Z,27.94
2023-05-08T04:16:29.691Z,27.94
2023-05-08T04:17:29.669Z,27.91
2023-05-08T04:18:29.631Z,27.90
2023-05-08T04:19:29.629Z,27.88
2023-05-08T04:20:29.641Z,27.87
2023-05-08T04:21:29.711Z,27.87
2023-05-08T04:22:29.771Z,27.84
2023-05-08T04:23:29.842Z,27.83
2023-05-08T04:24:29.892Z,27.82
2023-05-08T04:25:29.948Z,27.80
2023-05-08T04:26:30.009Z,27.81
2023-05-08T04:27:30.115Z,27.80
2023-05-08T04:28:30.105Z,27.80
2023-05-08T04:29:30.110Z,27.82
2023-05-08T04:30:30.188Z,27.81
2023-05-08T04:31:30.290Z,27.81
2023-05-08T04:32:30.453Z,27.82
2023-05-08T04:33:30.443Z,27.81
2023-05-08T04:34:30.434Z,27.81
2023-05-08T04:35:30.481Z,27.79
2023-05-08T04:36:30.533Z,27.79
2023-05-08T04:37:30.555Z,27.78
2023-05-08T04:38:30.652Z,27.78
2023-05-08T04:39:30.712Z,27.78
2023-05-08T04:40:30.713Z,27.79
2023-05-08T04:41:30.834Z,27.78
2023-05-08T04:42:30.820Z,27.79
2023-05-08T04:43:30.841Z,27.80
2023-05-08T04:44:30.896Z,27.80
2023-05-08T04:45:30.942Z,27.80
2023-05-08T04:46:31.083Z,27.81
2023-05-08T04:47:31.076Z,27.82
2023-05-08T04:48:31.049Z,27.83
2023-05-08T04:49:31.135Z,27.83
2023-05-08T04:50:31.146Z,27.83
2023-05-08T04:51:31.151Z,27.84
2023-05-08T04:52:31.196Z,27.84
2023-05-08T04:53:31.212Z,27.84
2023-05-08T04:54:31.323Z,27.84
2023-05-08T04:55:31.338Z,27.83
2023-05-08T04:56:31.388Z,27.83
2023-05-08T04:57:31.431Z,27.82
2023-05-08T04:58:31.446Z,27.82
2023-05-08T04:59:31.516Z,27.81
2023-05-08T05:00:31.672Z,27.81
2023-05-08T05:01:31.651Z,27.80
2023-05-08T05:02:31.702Z,27.79
2023-05-08T05:03:31.681Z,27.78
2023-05-08T05:04:31.708Z,27.77
2023-05-08T05:05:31.755Z,27.77
2023-05-08T05:06:31.792Z,27.76
2023-05-08T05:07:31.872Z,27.76
2023-05-08T05:08:31.928Z,27.75
2023-05-08T05:09:31.918Z,27.75
2023-05-08T05:10:31.978Z,27.74
2023-05-08T05:11:32.051Z,27.74
2023-05-08T05:12:32.057Z,27.73
2023-05-08T05:13:32.111Z,27.73
2023-05-08T05:14:32.150Z,27.73
2023-05-08T05:15:32.225Z,27.72
2023-05-08T05:16:32.375Z,27.72
2023-05-08T05:17:32.365Z,27.71
2023-05-08T05:18:32.347Z,27.70
2023-05-08T05:19:32.394Z,27.70
2023-05-08T05:20:32.482Z,27.70
2023-05-08T05:21:32.568Z,27.69
2023-05-08T05:22:32.577Z,27.68
2023-05-08T05:23:32.632Z,27.68
2023-05-08T05:24:32.714Z,27.68
2023-05-08T05:25:32.739Z,27.67
2023-05-08T05:26:33.455Z,27.66
2023-05-08T05:27:32.845Z,27.66
2023-05-08T05:28:32.925Z,27.65
2023-05-08T05:29:33.623Z,27.65
2023-05-08T05:30:33.048Z,27.64
2023-05-08T05:31:33.140Z,27.63
2023-05-08T05:32:33.203Z,27.57
2023-05-08T05:33:33.149Z,27.51
2023-05-08T05:34:33.170Z,27.43
2023-05-08T05:35:33.176Z,27.37
2023-05-08T05:36:33.278Z,27.33
2023-05-08T05:37:33.239Z,27.34
2023-05-08T05:38:33.233Z,27.34
2023-05-08T05:39:33.306Z,27.32
2023-05-08T05:40:33.330Z,27.27
2023-05-08T05:41:33.320Z,27.23
2023-05-08T05:42:33.494Z,27.17
2023-05-08T05:43:33.485Z,27.16
2023-05-08T05:44:33.458Z,27.13
2023-05-08T05:45:33.874Z,27.11
2023-05-08T05:46:33.603Z,27.09
2023-05-08T05:47:33.649Z,27.07
2023-05-08T05:48:33.621Z,27.06
2023-05-08T05:49:33.739Z,27.07
2023-05-08T05:50:33.690Z,27.09
2023-05-08T05:51:33.775Z,27.10
2023-05-08T05:52:33.763Z,27.13
2023-05-08T05:53:33.814Z,27.16
2023-05-08T05:54:33.762Z,27.18
2023-05-08T05:55:33.823Z,27.21
2023-05-08T05:56:33.875Z,27.23
2023-05-08T05:57:33.840Z,27.26
2023-05-08T05:58:34.875Z,27.29
2023-05-08T05:59:33.865Z,27.30
2023-05-08T06:00:33.855Z,27.32
2023-05-08T06:01:33.983Z,27.36
2023-05-08T06:02:34.010Z,27.38
2023-05-08T06:03:33.942Z,27.40
2023-05-08T06:04:33.906Z,27.41
2023-05-08T06:05:33.961Z,27.43
2023-05-08T06:06:33.937Z,27.46
2023-05-08T06:07:33.939Z,27.47
2023-05-08T06:08:34.384Z,27.46
2023-05-08T06:09:34.017Z,27.47
2023-05-08T06:10:33.956Z,27.49
2023-05-08T06:11:33.973Z,27.51
2023-05-08T06:12:33.989Z,27.51
2023-05-08T06:13:34.079Z,27.51
2023-05-08T06:14:33.996Z,27.53
2023-05-08T06:15:34.080Z,27.53
2023-05-08T06:16:34.132Z,27.54
2023-05-08T06:17:34.195Z,27.56
2023-05-08T06:18:34.236Z,27.57
2023-05-08T06:19:34.278Z,27.59
2023-05-08T06:20:34.346Z,27.58
2023-05-08T06:21:34.358Z,27.59
2023-05-08T06:22:34.449Z,27.59
2023-05-08T06:23:35.358Z,27.61
2023-05-08T06:24:34.611Z,27.62
2023-05-08T06:25:34.653Z,27.63
2023-05-08T06:26:34.704Z,27.63
2023-05-08T06:27:34.770Z,27.62
2023-05-08T06:28:34.799Z,27.63
2023-05-08T06:29:34.888Z,27.64
2023-05-08T06:30:34.945Z,27.64
2023-05-08T06:31:35.062Z,27.66
2023-05-08T06:32:35.405Z,27.67
2023-05-08T06:33:35.120Z,27.69
2023-05-08T06:34:35.862Z,27.69
2023-05-08T06:35:35.353Z,27.69
2023-05-08T06:36:35.271Z,27.69
2023-05-08T06:37:35.359Z,27.70
2023-05-08T06:38:35.873Z,27.70
2023-05-08T06:39:35.874Z,27.70
2023-05-08T06:40:35.507Z,27.69
2023-05-08T06:41:35.676Z,27.69
2023-05-08T06:42:35.882Z,27.69
2023-05-08T06:43:35.684Z,27.69
2023-05-08T06:44:35.717Z,27.69
2023-05-08T06:45:35.783Z,27.68
2023-05-08T06:46:35.977Z,27.66
2023-05-08T06:47:35.967Z,27.65
2023-05-08T06:48:36.128Z,27.65
2023-05-08T06:49:36.049Z,27.65
2023-05-08T06:50:36.865Z,27.65
2023-05-08T06:51:36.218Z,27.66
2023-05-08T06:52:36.373Z,27.66
2023-05-08T06:53:36.324Z,27.66
2023-05-08T06:54:36.392Z,27.66
2023-05-08T06:55:36.434Z,27.67
2023-05-08T06:56:36.492Z,27.67
2023-05-08T06:57:36.518Z,27.68
2023-05-08T06:58:36.625Z,27.68
2023-05-08T06:59:36.684Z,27.68
2023-05-08T07:00:36.743Z,27.67
2023-05-08T07:01:36.805Z,27.67
2023-05-08T07:02:36.847Z,27.67
2023-05-08T07:03:36.865Z,27.68
2023-05-08T07:04:37.005Z,27.70
2023-05-08T07:05:36.976Z,27.70
2023-05-08T07:06:37.070Z,27.70
2023-05-08T07:07:37.091Z,27.70
2023-05-08T07:08:37.149Z,27.71
2023-05-08T07:09:37.205Z,27.71
2023-05-08T07:10:37.879Z,27.72
2023-05-08T07:11:37.331Z,27.73
2023-05-08T07:12:37.537Z,27.73
2023-05-08T07:13:37.422Z,27.74
2023-05-08T07:14:37.477Z,27.74
2023-05-08T07:15:38.359Z,27.75
2023-05-08T07:16:37.625Z,27.74
2023-05-08T07:17:37.598Z,27.75
2023-05-08T07:18:37.687Z,27.76
2023-05-08T07:19:37.727Z,27.77
2023-05-08T07:20:37.715Z,27.77
2023-05-08T07:21:37.807Z,27.77
2023-05-08T07:22:37.879Z,27.79
2023-05-08T07:23:37.984Z,27.79
2023-05-08T07:24:37.938Z,27.79
2023-05-08T07:25:37.913Z,27.79
2023-05-08T07:26:38.035Z,27.80
2023-05-08T07:27:38.035Z,27.79
2023-05-08T07:28:38.077Z,27.79
2023-05-08T07:29:38.145Z,27.76
2023-05-08T07:30:38.421Z,27.72
2023-05-08T07:31:38.320Z,27.70
2023-05-08T07:32:38.343Z,27.66
2023-05-08T07:33:38.336Z,27.65
2023-05-08T07:34:38.382Z,27.61
2023-05-08T07:35:38.387Z,27.54
2023-05-08T07:36:40.887Z,27.46
2023-05-08T07:37:38.507Z,27.38
2023-05-08T07:38:38.568Z,27.33
2023-05-08T07:39:38.604Z,27.28
2023-05-08T07:40:38.586Z,27.27
2023-05-08T07:41:38.685Z,27.29
2023-05-08T07:42:38.596Z,27.31
2023-05-08T07:43:38.641Z,27.33
2023-05-08T07:44:50.982Z,27.33
2023-05-08T07:45:39.651Z,27.35
2023-05-08T07:46:38.943Z,27.36
2023-05-08T07:47:38.923Z,27.37
2023-05-08T07:48:38.646Z,27.37
2023-05-08T07:49:38.621Z,27.37
2023-05-08T07:50:38.645Z,27.39
2023-05-08T07:51:38.606Z,27.39
2023-05-08T07:52:38.607Z,27.40
2023-05-08T07:53:38.622Z,27.39
2023-05-08T07:54:38.628Z,27.39
2023-05-08T07:55:38.652Z,27.41
2023-05-08T07:56:38.586Z,27.40
2023-05-08T07:57:38.897Z,27.41
2023-05-08T07:58:38.606Z,27.42
2023-05-08T07:59:38.629Z,27.42
2023-05-08T08:00:38.740Z,27.42
2023-05-08T08:01:38.620Z,27.43
2023-05-08T08:02:38.881Z,27.44
2023-05-08T08:03:38.630Z,27.44
2023-05-08T08:04:38.657Z,27.44
2023-05-08T08:05:38.584Z,27.43
2023-05-08T08:06:38.488Z,27.44
2023-05-08T08:07:38.517Z,27.44
2023-05-08T08:08:38.507Z,27.46
2023-05-08T08:09:38.504Z,27.45
2023-05-08T08:10:38.565Z,27.45
2023-05-08T08:11:38.460Z,27.46
2023-05-08T08:12:38.509Z,27.46
2023-05-08T08:13:38.456Z,27.47
2023-05-08T08:14:38.484Z,27.47
2023-05-08T08:15:38.541Z,27.47
2023-05-08T08:16:38.693Z,27.48
2023-05-08T08:17:38.699Z,27.49
2023-05-08T08:18:38.690Z,27.49
2023-05-08T08:19:38.707Z,27.50
2023-05-08T08:20:38.688Z,27.51
2023-05-08T08:21:38.746Z,27.51
2023-05-08T08:22:38.777Z,27.51
2023-05-08T08:23:38.945Z,27.51
2023-05-08T08:24:38.868Z,27.50
2023-05-08T08:25:38.874Z,27.49
2023-05-08T08:26:39.893Z,27.48
2023-05-08T08:27:38.941Z,27.45
2023-05-08T08:28:38.951Z,27.47
2023-05-08T08:29:39.409Z,27.48
2023-05-08T08:30:39.003Z,27.46
2023-05-08T08:31:39.136Z,27.43
2023-05-08T08:32:39.577Z,27.38
2023-05-08T08:33:38.990Z,27.35
2023-05-08T08:34:39.001Z,27.31
2023-05-08T08:35:39.039Z,27.29
2023-05-08T08:36:39.048Z,27.29
2023-05-08T08:37:39.428Z,27.26
2023-05-08T08:38:39.071Z,27.25
2023-05-08T08:39:39.132Z,27.23
2023-05-08T08:40:39.135Z,27.21
2023-05-08T08:41:39.145Z,27.16
2023-05-08T08:42:39.382Z,27.17
2023-05-08T08:43:39.208Z,27.16
2023-05-08T08:44:40.055Z,27.11
2023-05-08T08:45:39.269Z,27.13
2023-05-08T08:46:39.346Z,27.15
2023-05-08T08:47:39.387Z,27.15
2023-05-08T08:48:39.499Z,27.17
2023-05-08T08:49:39.352Z,27.19
2023-05-08T08:50:39.388Z,27.21
2023-05-08T08:51:39.417Z,27.21
2023-05-08T08:52:39.449Z,27.24
2023-05-08T08:53:39.424Z,27.25
2023-05-08T08:54:39.432Z,27.24
2023-05-08T08:55:39.448Z,27.22
2023-05-08T08:56:39.471Z,27.21
2023-05-08T08:57:39.917Z,27.19
2023-05-08T08:58:39.512Z,27.19
2023-05-08T08:59:39.539Z,27.19
2023-05-08T09:00:39.509Z,27.19
2023-05-08T09:01:39.666Z,27.18
2023-05-08T09:02:39.710Z,27.18
2023-05-08T09:03:39.672Z,27.17
2023-05-08T09:04:39.671Z,27.15
2023-05-08T09:05:39.614Z,27.14
2023-05-08T09:06:39.684Z,27.13
2023-05-08T09:07:39.669Z,27.16
2023-05-08T09:08:39.668Z,27.19
2023-05-08T09:09:39.804Z,27.20
2023-05-08T09:10:39.962Z,27.21
2023-05-08T09:11:39.751Z,27.22
2023-05-08T09:12:39.773Z,27.23
2023-05-08T09:13:39.800Z,27.22
2023-05-08T09:14:39.729Z,27.22
2023-05-08T09:15:39.777Z,27.22
2023-05-08T09:16:39.860Z,27.22
2023-05-08T09:17:39.825Z,27.23
2023-05-08T09:18:39.800Z,27.24
2023-05-08T09:19:39.817Z,27.23
2023-05-08T09:20:39.908Z,27.23
2023-05-08T09:21:39.836Z,27.22
2023-05-08T09:22:39.971Z,27.21
2023-05-08T09:23:39.883Z,27.20
2023-05-08T09:24:39.894Z,27.18
2023-05-08T09:25:39.906Z,27.15
2023-05-08T09:26:39.915Z,27.09
2023-05-08T09:27:39.949Z,27.05
2023-05-08T09:28:39.962Z,27.03
2023-05-08T09:29:39.990Z,27.05
2023-05-08T09:30:40.439Z,27.02
2023-05-08T09:31:40.085Z,27.02
2023-05-08T09:32:40.215Z,27.03
2023-05-08T09:33:40.102Z,27.01
2023-05-08T09:34:40.108Z,26.96
2023-05-08T09:35:40.421Z,26.90
2023-05-08T09:36:40.291Z,26.84
2023-05-08T09:37:40.440Z,26.81
2023-05-08T09:38:40.479Z,26.81
2023-05-08T09:39:40.448Z,26.83
2023-05-08T09:40:40.472Z,26.84
2023-05-08T09:41:40.930Z,26.87
2023-05-08T09:42:40.523Z,26.89
2023-05-08T09:43:40.526Z,26.91
2023-05-08T09:44:40.602Z,26.95
2023-05-08T09:45:40.667Z,26.96
2023-05-08T09:46:40.941Z,26.99
2023-05-08T09:47:41.007Z,27.02
2023-05-08T09:48:40.685Z,27.04
2023-05-08T09:49:40.733Z,27.06
2023-05-08T09:50:42.990Z,27.08
2023-05-08T09:51:40.741Z,27.10
2023-05-08T09:52:40.769Z,27.11
2023-05-08T09:53:40.746Z,27.13
2023-05-08T09:54:40.713Z,27.16
2023-05-08T09:55:40.980Z,27.16
2023-05-08T09:56:40.661Z,27.17
2023-05-08T09:57:40.684Z,27.19
2023-05-08T09:58:40.719Z,27.23
2023-05-08T09:59:40.650Z,27.25
2023-05-08T10:00:40.636Z,27.27
2023-05-08T10:01:40.718Z,27.27
2023-05-08T10:02:40.667Z,27.29
2023-05-08T10:03:40.724Z,27.32
2023-05-08T10:04:40.685Z,27.34
2023-05-08T10:05:40.970Z,27.36
2023-05-08T10:06:40.642Z,27.39
2023-05-08T10:07:40.589Z,27.39
2023-05-08T10:08:40.699Z,27.40
2023-05-08T10:09:50.213Z,27.41
2023-05-08T10:10:41.595Z,27.42
2023-05-08T10:11:40.575Z,27.45
2023-05-08T10:12:40.661Z,27.47
2023-05-08T10:13:40.592Z,27.48
2023-05-08T10:14:40.542Z,27.50
2023-05-08T10:15:40.561Z,27.50
2023-05-08T10:16:40.546Z,27.51
2023-05-08T10:17:40.662Z,27.49
2023-05-08T10:18:40.609Z,27.52
2023-05-08T10:19:40.674Z,27.53
2023-05-08T10:20:40.740Z,27.53
2023-05-08T10:21:40.774Z,27.54
2023-05-08T10:22:40.888Z,27.56
2023-05-08T10:23:40.897Z,27.56
2023-05-08T10:24:41.060Z,27.56
2023-05-08T10:25:40.987Z,27.56
2023-05-08T10:26:47.772Z,27.54
2023-05-08T10:27:42.036Z,27.55
2023-05-08T10:28:41.028Z,27.55
2023-05-08T10:29:41.064Z,27.53
2023-05-08T10:30:41.048Z,27.52
2023-05-08T10:31:41.079Z,27.51
2023-05-08T10:32:41.054Z,27.50
2023-05-08T10:33:41.015Z,27.48
2023-05-08T10:34:41.499Z,27.47
2023-05-08T10:35:41.077Z,27.47
2023-05-08T10:36:41.176Z,27.46
2023-05-08T10:37:41.169Z,27.44
2023-05-08T10:38:41.102Z,27.42
2023-05-08T10:39:41.186Z,27.40
2023-05-08T10:40:41.219Z,27.39
2023-05-08T10:41:41.122Z,27.38
2023-05-08T10:42:41.142Z,27.37
2023-05-08T10:43:41.128Z,27.36
2023-05-08T10:44:41.148Z,27.33
2023-05-08T10:45:41.461Z,27.32
2023-05-08T10:46:41.290Z,27.29
2023-05-08T10:47:44.928Z,27.28
2023-05-08T10:48:41.153Z,27.28
2023-05-08T10:49:41.122Z,27.27
2023-05-08T10:50:41.146Z,27.26
2023-05-08T10:51:41.154Z,27.26
2023-05-08T10:52:41.109Z,27.25
2023-05-08T10:53:41.088Z,27.24
2023-05-08T10:54:41.201Z,27.25
2023-05-08T10:55:41.088Z,27.24
2023-05-08T10:56:41.091Z,27.24
2023-05-08T10:57:41.130Z,27.23
2023-05-08T10:58:41.104Z,27.22
2023-05-08T10:59:41.033Z,27.22
2023-05-08T11:00:41.059Z,27.21
2023-05-08T11:01:41.079Z,27.19
2023-05-08T11:02:41.121Z,27.18
2023-05-08T11:03:41.199Z,27.19
2023-05-08T11:04:41.198Z,27.17
2023-05-08T11:05:40.996Z,27.18
2023-05-08T11:06:41.043Z,27.18
2023-05-08T11:07:41.046Z,27.15
2023-05-08T11:08:41.006Z,27.14
2023-05-08T11:09:41.017Z,27.13
2023-05-08T11:10:41.010Z,27.11
2023-05-08T11:11:40.983Z,27.10
2023-05-08T11:12:41.080Z,27.11
2023-05-08T11:13:40.994Z,27.10
2023-05-08T11:14:40.993Z,27.09
2023-05-08T11:15:40.967Z,27.09
2023-05-08T11:16:40.981Z,27.09
2023-05-08T11:17:41.013Z,27.10
2023-05-08T11:18:49.403Z,27.10
2023-05-08T11:19:41.951Z,27.10
2023-05-08T11:20:41.043Z,27.11
2023-05-08T11:21:40.941Z,27.11
2023-05-08T11:22:40.959Z,27.13
2023-05-08T11:23:41.007Z,27.11
2023-05-08T11:24:40.895Z,27.11
2023-05-08T11:25:40.916Z,27.12
2023-05-08T11:26:40.965Z,27.13
2023-05-08T11:27:40.875Z,27.14
2023-05-08T11:28:40.934Z,27.15
2023-05-08T11:29:40.990Z,27.15
2023-05-08T11:30:40.834Z,27.17
2023-05-08T11:31:40.872Z,27.17
2023-05-08T11:32:40.890Z,27.18
2023-05-08T11:33:40.853Z,27.18
2023-05-08T11:34:40.877Z,27.19
2023-05-08T11:35:40.817Z,27.19
2023-05-08T11:36:40.836Z,27.18
2023-05-08T11:37:40.803Z,27.18
2023-05-08T11:38:40.778Z,27.18
2023-05-08T11:39:40.810Z,27.18
2023-05-08T11:40:40.814Z,27.18
2023-05-08T11:41:40.824Z,27.18
2023-05-08T11:42:40.765Z,27.18
2023-05-08T11:43:40.803Z,27.17
2023-05-08T11:44:40.785Z,27.17
2023-05-08T11:45:40.799Z,27.17
2023-05-08T11:46:40.795Z,27.17
2023-05-08T11:47:40.752Z,27.17
2023-05-08T11:48:40.756Z,27.17
2023-05-08T11:49:40.718Z,27.17
2023-05-08T11:50:40.731Z,27.17
2023-05-08T11:51:40.686Z,27.16
2023-05-08T11:52:40.692Z,27.17
2023-05-08T11:53:40.718Z,27.16
2023-05-08T11:54:40.701Z,27.15
2023-05-08T11:55:40.667Z,27.15
2023-05-08T11:56:40.665Z,27.15
2023-05-08T11:57:40.662Z,27.15
2023-05-08T11:58:40.669Z,27.14
2023-05-08T11:59:40.688Z,27.14
2023-05-08T12:00:40.747Z,27.14
2023-05-08T12:01:40.821Z,27.15
2023-05-08T12:02:40.783Z,27.14
2023-05-08T12:03:40.806Z,27.15
2023-05-08T12:04:40.861Z,27.14
2023-05-08T12:05:40.786Z,27.15
2023-05-08T12:06:40.765Z,27.14
2023-05-08T12:07:40.785Z,27.14
2023-05-08T12:08:40.785Z,27.13
2023-05-08T12:09:40.860Z,27.13
2023-05-08T12:10:40.832Z,27.15
2023-05-08T12:11:40.814Z,27.15
2023-05-08T12:12:40.915Z,27.13
2023-05-08T12:13:40.826Z,27.14
2023-05-08T12:14:40.893Z,27.13
2023-05-08T12:15:40.859Z,27.13
2023-05-08T12:16:40.969Z,27.14
2023-05-08T12:17:40.958Z,27.13
2023-05-08T12:18:40.918Z,27.14
2023-05-08T12:19:40.892Z,27.13
2023-05-08T12:20:41.930Z,27.14
2023-05-08T12:21:40.878Z,27.13
2023-05-08T12:22:40.884Z,27.13
2023-05-08T12:23:40.877Z,27.14
2023-05-08T12:24:40.845Z,27.14
2023-05-08T12:25:40.859Z,27.14
2023-05-08T12:26:40.896Z,27.14
2023-05-08T12:27:40.877Z,27.14
2023-05-08T12:28:40.848Z,27.14
2023-05-08T12:29:40.822Z,27.13
2023-05-08T12:30:40.831Z,27.14
2023-05-08T12:31:40.866Z,27.13
2023-05-08T12:32:40.821Z,27.13
2023-05-08T12:33:40.820Z,27.12
2023-05-08T12:34:40.771Z,27.13
2023-05-08T12:35:40.773Z,27.12
2023-05-08T12:36:40.788Z,27.12
2023-05-08T12:37:40.811Z,27.11
2023-05-08T12:38:40.792Z,27.12
2023-05-08T12:39:40.765Z,27.12
2023-05-08T12:40:40.790Z,27.12
2023-05-08T12:41:40.769Z,27.11
2023-05-08T12:42:40.773Z,27.12
2023-05-08T12:43:40.783Z,27.11
2023-05-08T12:44:40.736Z,27.11
2023-05-08T12:45:40.723Z,27.11
2023-05-08T12:46:40.747Z,27.11
2023-05-08T12:47:40.781Z,27.11
2023-05-08T12:48:40.968Z,27.11
2023-05-08T12:49:40.685Z,27.11
2023-05-08T12:50:40.756Z,27.11
2023-05-08T12:51:40.751Z,27.11
2023-05-08T12:52:40.663Z,27.11